Aérodrome :
LOGIN :

S'inscrire | Disclaimer

   EN    FR    IT 

 










Légende :    VFR   VFR Marginal   IFR   IFR Intensif   IFR Très Intensif
Visi : 
Plafond : 
>= 8 km
>= 3000ft
5 à 8 km
1000 à 3000 ft
1500m à 5 km
500 à 1000 ft
800 à 1500m
200 à 500 ft
< 800m
< 200 ft
Symboles :   Orages  Brouillard  Fortes neiges  Fortes précipitations  Vent > 20 kt
SIGMETs :   Divers  Orages  Givrage  Turbulence  Onde Orograph.  Cendres Volcan.







- Altitude de l'aérodrome : 505 ft
- Code IATA : SXB
- Voir les cartes d'approche


LFST - Strasbourg

DERNIER METAR :
  • 171900Z AUTO 23009KT 9999 SCT036 SCT045 BKN064 03/00 Q1012 TEMPO 29018G30KT 2500 SHRASN SCT025TCU

METARs EXPIRÉS :
  • 171830Z AUTO 23008KT 9999 SCT034 03/00 Q1012 TEMPO 29018G30KT 2500 SHRASN SCT025TCU
  • 171800Z AUTO 24009KT 9999 FEW060 SCT140 04/01 Q1011 TEMPO 29018G30KT 2500 SHRASN SCT008 SCT015CB
  • 171730Z AUTO 24009KT 9999 -RA SCT022 BKN029 BKN042 04/02 Q1011 TEMPO 29018G30KT 2500 SHRASN SCT008 SCT015CB
  • 171700Z AUTO 25015KT 9999 -RA FEW022 BKN034 BKN046 05/02 Q1011 TEMPO 3000 SHRASN SCT008 SCT020CB
  • 171630Z AUTO 28017KT 250V310 9999 4700 RA FEW024 BKN034 OVC044 06/02 Q1010 TEMPO 3000 SHRASN SCT008 SCT020CB

TAF TAF LFST
Valide du 17 à 18h jusqu'au 18 à 18h UTC


171700Z 1718/1818 25008KT 9999 FEW025 BKN035
TEMPO 1718/1722 28015KT -SHRA SCT025TCU
PROB40
TEMPO 1718/1720 29018G30KT 2500 SHRASN SCT008 SCT015CB
PROB40
TEMPO 1808/1810 BKN005
BECMG 1810/1812 04006KT BKN020
TEMPO 1815/1818 CAVOK
Pas de NOTAMs connus pour ce terrain.



MET'MAP, la Météo Aéronautique d'un coup d'oeil ! - Copyright ORBIFLY Décembre 2007 - Disclaimer

ORBIFLY MET'MAP TEAM :

Programmation & Développement : Alexandra Zaïnal
Conception & Développement : Baudouin d'Aumeries
Co-Programmation & Développement : Marc-Olivier Méhu
Soutien technique & logistique : Manuel Goepfert

Contact : metmap@orbifly.com




SOURCES & CREDITS :

   NOAA